KGRB

Green Bay-Austin Straubel International Airport

Green Bay, Wisconsin, USA
KGRB 201720Z 2018/2118 19006KT P6SM BKN250 FM210200 VRB03KT P6SM BKN200 FM211500 22005KT P6SM SKC
Issued Valid From Valid To
Apr-20 @ 17:20 UTC
(an hour ago)
Apr-20 @ 18:00 UTC
(35 minutes ago)
Apr-21 @ 18:00 UTC
(in 23 hours)
Apr-20 @ 18:00 to Apr-21 @ 02:00
KGRB 201720Z 2018/2118 19006KT P6SM BKN250
Wind Visibility Clouds
190° at 6 knots Greater than 6 miles
  • Broken at 25,000' AGL
From Apr-21 @ 02:00 to Apr-21 @ 15:00
FM210200 VRB03KT P6SM BKN200
Wind Visibility Clouds
Variable at 3 knots Greater than 6 miles
  • Broken at 20,000' AGL
From Apr-21 @ 15:00 to Apr-21 @ 18:00
FM211500 22005KT P6SM SKC
Wind Visibility Clouds
220° at 5 knots Greater than 6 miles
  • Clear skies
KGRB 201720Z 2018/2118 19006KT P6SM BKN250 FM210200 VRB03KT P6SM BKN200 FM211500 22005KT P6SM SKC
Issued Apr-20 @ 17:20 UTC
(an hour ago)
Valid From Apr-20 @ 18:00 UTC
(35 minutes ago)
Valid To Apr-21 @ 18:00 UTC
(in 23 hours)
Apr-20 @ 18:00 - Apr-21 @ 02:00
Wind Visibility
190° at 6 knots Greater than 6 miles
Clouds
  • Broken at 25,000' AGL
From Apr-21 @ 02:00 - Apr-21 @ 15:00
Wind Visibility
Variable at 3 knots Greater than 6 miles
Clouds
  • Broken at 20,000' AGL
From Apr-21 @ 15:00 - Apr-21 @ 18:00
Wind Visibility
220° at 5 knots Greater than 6 miles
Clouds
  • Clear skies